Time;durP1;ratioP1;P1;durP2;ratioP2;P2;SDS_P1;SDS_P2;PMS_P1;PMS_P2;Temp;Humidity;BMP_temperature;BMP_pressure;BME280_temperature;BME280_humidity;BME280_pressure;Samples;Min_cycle;Max_cycle;Signal;HPM_P1;HPM_P2
2023/05/13 00:02:22;;;;;;;9.70;8.77;;;13.50;99.90;;;-141.84;66.14;20246.75;5034850;28;20220;-55
2023/05/13 00:04:50;;;;;;;9.87;8.83;;;13.50;99.90;;;-141.84;65.98;20279.28;5046070;28;20201;-54
2023/05/13 00:07:18;;;;;;;9.57;8.57;;;13.40;99.90;;;-141.84;66.80;20269.13;5053905;28;20255;-55
2023/05/13 00:09:48;;;;;;;9.70;8.77;;;13.40;99.90;;;-141.84;67.52;20246.75;5053494;28;20197;-54
2023/05/13 00:12:17;;;;;;;9.57;8.67;;;13.30;99.90;;;-141.84;67.48;20244.72;5041743;28;20202;-54
2023/05/13 00:14:45;;;;;;;10.67;8.67;;;13.30;99.90;;;-141.84;68.24;20226.44;5034016;28;20202;-55
2023/05/13 00:17:13;;;;;;;9.77;8.97;;;13.20;99.90;;;-141.84;69.63;20204.06;5034008;28;20201;-54
2023/05/13 00:19:41;;;;;;;9.37;8.40;;;13.10;99.90;;;-141.84;70.65;20175.63;5049693;28;20202;-55
2023/05/13 00:22:10;;;;;;;9.63;8.73;;;13.00;99.90;;;-141.84;71.40;20147.16;5053843;28;20596;-52
2023/05/13 00:24:38;;;;;;;9.83;8.93;;;12.90;99.90;;;-141.84;71.62;20191.88;5053027;28;20748;-55
2023/05/13 00:27:07;;;;;;;9.60;8.70;;;12.80;99.90;;;-141.84;71.86;20224.41;5053737;28;20288;-55
2023/05/13 00:29:35;;;;;;;9.63;8.47;;;12.80;99.90;;;-141.84;71.76;20181.72;5053400;28;20201;-53
2023/05/13 00:32:04;;;;;;;12.13;9.07;;;12.80;99.90;;;-141.84;71.69;20208.13;5038615;28;20209;-56
2023/05/13 00:34:33;;;;;;;9.43;8.63;;;12.70;99.90;;;-141.84;71.89;20143.09;5043012;28;20247;-53
2023/05/13 00:37:01;;;;;;;11.53;9.30;;;12.70;99.90;;;-141.84;72.34;20149.19;5053465;28;20601;-56
2023/05/13 00:39:29;;;;;;;10.10;9.10;;;12.70;99.90;;;-141.84;72.22;20167.47;5053145;28;20208;-55
2023/05/13 00:41:59;;;;;;;9.90;9.00;;;12.70;99.90;;;-141.84;72.38;20145.13;5040524;28;20198;-55
2023/05/13 00:44:29;;;;;;;10.40;9.17;;;12.70;99.90;;;-141.84;72.51;20165.44;5033528;28;20210;-55
2023/05/13 00:46:57;;;;;;;9.77;8.90;;;12.70;99.90;;;-141.84;72.22;20177.66;5032356;28;20597;-56
2023/05/13 00:49:25;;;;;;;10.07;9.07;;;12.80;99.90;;;-141.84;72.42;20175.63;5032811;28;20233;-57
2023/05/13 00:51:54;;;;;;;10.37;9.37;;;12.70;99.90;;;-141.84;73.23;20118.69;5041199;28;20202;-56
2023/05/13 00:54:22;;;;;;;10.60;9.17;;;12.70;99.90;;;-141.84;73.62;20132.94;5052642;28;20230;-52
2023/05/13 00:56:53;;;;;;;10.23;9.33;;;12.70;99.90;;;-141.84;73.85;20128.88;5053106;28;20198;-55
2023/05/13 00:59:21;;;;;;;10.00;9.10;;;12.60;99.90;;;-141.84;74.08;20098.38;5053201;28;20210;-54
2023/05/13 01:02:03;;;;;;;10.80;9.37;;;12.60;99.90;;;-141.84;74.27;20128.88;5040229;28;20297;-52
2023/05/13 01:04:44;;;;;;;10.20;9.10;;;12.60;99.90;;;-141.84;73.20;20088.22;5042229;28;20614;-56
2023/05/13 01:07:25;;;;;;;10.30;9.13;;;12.70;99.90;;;-141.84;73.17;20114.63;5052899;28;20213;-54
2023/05/13 01:10:04;;;;;;;10.00;9.10;;;12.60;99.90;;;-141.84;73.95;20122.78;5052351;28;20688;-55
2023/05/13 01:12:36;;;;;;;9.93;8.93;;;12.50;99.90;;;-141.84;73.68;20102.44;5053027;28;20186;-53
2023/05/13 01:15:09;;;;;;;9.93;8.97;;;12.50;99.90;;;-141.84;72.52;20151.22;5052763;28;20213;-55
2023/05/13 01:17:49;;;;;;;9.50;8.50;;;12.60;99.90;;;-141.84;72.94;20094.31;5052596;28;20198;-56
2023/05/13 01:20:21;;;;;;;9.90;8.90;;;12.60;99.90;;;-141.84;73.18;20110.56;5032950;28;20194;-55
2023/05/13 01:22:52;;;;;;;9.30;8.30;;;12.60;99.90;;;-141.84;73.09;20104.47;5032845;28;20190;-54
2023/05/13 01:25:20;;;;;;;9.93;8.93;;;12.60;99.90;;;-141.84;73.33;20122.78;5031818;28;20681;-54
2023/05/13 01:27:48;;;;;;;9.20;8.30;;;12.70;99.90;;;-141.84;73.18;20112.59;5032368;28;20301;-55
2023/05/13 01:30:17;;;;;;;9.83;8.77;;;12.70;99.90;;;-141.84;72.30;20155.28;5032677;28;20272;-53
2023/05/13 01:32:46;;;;;;;9.27;8.47;;;12.80;99.90;;;-141.84;71.13;20175.63;5032342;28;20210;-56
2023/05/13 01:35:16;;;;;;;8.30;7.60;;;12.80;99.90;;;-141.84;70.99;20163.41;5047599;28;20210;-55
2023/05/13 01:37:44;;;;;;;9.27;8.43;;;12.90;99.90;;;-141.84;70.87;20147.16;5052698;28;20245;-56
2023/05/13 01:40:14;;;;;;;8.87;7.97;;;12.90;99.90;;;-141.84;70.78;20200.00;5051621;28;20216;-56
2023/05/13 01:42:59;;;;;;;8.77;7.87;;;13.00;99.90;;;-141.84;70.69;20175.63;5032351;28;20287;-55
2023/05/13 01:45:29;;;;;;;8.97;8.20;;;13.00;99.90;;;-141.84;70.85;20187.81;5032716;28;20225;-55
2023/05/13 01:47:57;;;;;;;9.10;8.20;;;13.30;99.90;;;-141.84;71.13;20171.56;5032013;28;20241;-58
2023/05/13 01:50:26;;;;;;;8.97;8.17;;;13.10;99.90;;;-141.84;69.94;20195.94;5050048;28;20185;-54
2023/05/13 01:52:54;;;;;;;8.57;7.77;;;13.20;99.90;;;-141.84;70.42;20171.56;5051849;28;20202;-55
2023/05/13 01:55:23;;;;;;;9.27;8.43;;;13.10;99.90;;;-141.84;70.52;20165.44;5051232;28;20201;-57
2023/05/13 01:57:51;;;;;;;8.90;8.00;;;13.10;99.90;;;-141.84;69.89;20202.03;5051668;28;20597;-54
2023/05/13 02:00:20;;;;;;;8.43;7.63;;;13.10;99.90;;;-141.84;70.53;20167.47;5051294;28;20205;-51
2023/05/13 02:02:49;;;;;;;8.73;8.00;;;13.10;99.90;;;-141.84;71.67;20147.16;5031927;28;20202;-56
2023/05/13 02:05:17;;;;;;;9.20;8.30;;;13.00;99.90;;;-141.84;70.59;20181.72;5048181;28;20205;-55
2023/05/13 02:07:45;;;;;;;9.50;8.57;;;13.00;99.90;;;-141.84;70.57;20153.25;5051555;28;20685;-54
2023/05/13 02:10:13;;;;;;;9.77;8.60;;;13.00;99.90;;;-141.84;71.06;20147.16;5051078;28;20225;-57
2023/05/13 02:12:43;;;;;;;9.33;8.47;;;12.90;99.90;;;-141.84;70.90;20145.13;5051851;28;20609;-54
2023/05/13 02:15:13;;;;;;;8.90;8.10;;;12.90;99.90;;;-141.84;70.58;20145.13;5051500;28;20193;-55
2023/05/13 02:17:41;;;;;;;9.83;8.27;;;12.90;99.90;;;-141.84;68.96;20206.09;5051975;28;20241;-56
2023/05/13 02:20:12;;;;;;;8.53;7.70;;;12.90;99.90;;;-141.84;68.89;20151.22;5031607;28;20218;-54
2023/05/13 02:22:40;;;;;;;8.60;7.87;;;12.90;99.90;;;-141.84;69.85;20141.06;5032228;28;20197;-57
2023/05/13 02:25:09;;;;;;;9.57;8.07;;;12.90;99.90;;;-141.84;69.13;20173.59;5031117;28;20209;-55
2023/05/13 02:27:38;;;;;;;8.47;7.67;;;12.80;99.90;;;-141.84;69.59;20159.34;5031797;28;20209;-58
2023/05/13 02:30:09;;;;;;;9.17;8.27;;;12.80;99.90;;;-141.84;69.76;20159.34;5031638;28;20232;-53
2023/05/13 02:32:41;;;;;;;10.13;8.07;;;12.80;99.90;;;-141.84;70.12;20151.22;5031065;28;20213;-59
2023/05/13 02:35:10;;;;;;;8.93;7.80;;;12.70;99.90;;;-141.84;71.28;20071.97;5045810;28;20665;-55
2023/05/13 02:37:38;;;;;;;8.23;7.53;;;12.60;99.90;;;-141.84;72.27;20076.03;5051622;28;20205;-54
2023/05/13 02:40:08;;;;;;;8.60;7.80;;;12.50;99.90;;;-141.84;72.91;20053.66;5050750;28;20201;-55
2023/05/13 02:42:36;;;;;;;8.70;7.90;;;12.50;99.90;;;-141.84;72.76;20055.69;5033291;28;20222;-56
2023/05/13 02:45:07;;;;;;;8.90;8.10;;;12.40;99.90;;;-141.84;73.06;20053.66;5031409;28;20224;-57
2023/05/13 02:47:35;;;;;;;8.87;8.03;;;12.30;99.90;;;-141.84;73.55;20043.50;5031204;28;20672;-55
2023/05/13 02:50:06;;;;;;;8.57;7.57;;;12.30;99.90;;;-141.84;73.96;20008.94;5031039;28;20232;-55
2023/05/13 02:52:35;;;;;;;8.97;8.07;;;12.20;99.90;;;-141.84;73.62;20017.09;5045029;28;20281;-55
2023/05/13 02:55:03;;;;;;;8.43;7.63;;;12.10;99.90;;;-141.84;73.57;19990.66;5050806;28;20228;-56
2023/05/13 02:57:31;;;;;;;9.00;8.13;;;12.10;99.90;;;-141.84;73.86;19996.75;5051754;28;20189;-55
2023/05/13 02:59:59;;;;;;;9.17;8.27;;;12.00;99.90;;;-141.84;74.65;20019.13;5051371;28;20221;-56
2023/05/13 03:02:29;;;;;;;8.63;7.83;;;11.90;99.90;;;-141.84;75.12;20019.13;5032824;28;20233;-56
2023/05/13 03:04:57;;;;;;;8.73;7.83;;;11.90;99.90;;;-141.84;75.24;20019.13;5036843;28;20293;-56
2023/05/13 03:07:25;;;;;;;9.00;8.23;;;11.90;99.90;;;-141.84;74.77;20008.94;5046993;28;20205;-55
2023/05/13 03:09:53;;;;;;;9.47;8.20;;;11.90;99.90;;;-141.84;74.47;19994.72;5053156;28;20217;-55
2023/05/13 03:12:22;;;;;;;9.77;8.77;;;11.90;99.90;;;-141.84;74.29;19996.75;5055230;28;20205;-56
2023/05/13 03:14:50;;;;;;;9.33;8.40;;;11.90;99.90;;;-141.84;75.19;19984.56;5055246;28;20205;-57
2023/05/13 03:17:18;;;;;;;8.90;8.10;;;11.90;99.90;;;-141.84;75.67;19978.47;5054819;28;20320;-54
2023/05/13 03:19:48;;;;;;;10.20;9.13;;;11.80;99.90;;;-141.84;76.03;19970.34;5038061;28;20796;-55
2023/05/13 03:22:16;;;;;;;9.53;8.70;;;11.80;99.90;;;-141.84;76.60;19974.41;5034969;28;20198;-52
2023/05/13 03:24:44;;;;;;;11.20;9.07;;;11.70;99.90;;;-141.84;76.15;19984.56;5034581;28;20202;-56
2023/05/13 03:27:12;;;;;;;9.33;8.53;;;11.70;99.90;;;-141.84;76.12;19952.03;5034580;28;20411;-54
2023/05/13 03:29:41;;;;;;;9.27;8.40;;;11.70;99.90;;;-141.84;76.42;19939.84;5034920;28;20218;-56
2023/05/13 03:32:09;;;;;;;9.43;8.37;;;11.70;99.90;;;-141.84;76.54;19980.50;5034136;28;20213;-53
2023/05/13 03:34:37;;;;;;;9.93;9.03;;;11.60;99.90;;;-141.84;76.38;19968.31;5053896;28;20208;-55
2023/05/13 03:37:07;;;;;;;9.53;8.13;;;11.60;99.90;;;-141.84;76.36;19994.72;5074770;28;20287;-57
2023/05/13 03:39:36;;;;;;;9.73;8.83;;;11.60;99.90;;;-141.84;76.31;19956.09;5074486;28;20185;-55
2023/05/13 03:42:04;;;;;;;9.77;8.87;;;11.60;99.90;;;-141.84;76.41;19923.59;5061050;28;20200;-54
2023/05/13 03:44:33;;;;;;;9.60;8.73;;;11.60;99.90;;;-141.84;76.51;19968.31;5054523;28;20719;-52
2023/05/13 03:47:01;;;;;;;8.83;8.03;;;11.60;99.90;;;-141.84;77.19;19933.75;5038533;28;20577;-54
2023/05/13 03:49:29;;;;;;;10.30;8.90;;;11.60;99.90;;;-141.84;77.73;19923.59;5044425;28;20229;-55
2023/05/13 03:51:57;;;;;;;9.73;8.83;;;11.50;99.90;;;-141.84;77.80;19958.13;5054036;28;20669;-53
2023/05/13 03:54:27;;;;;;;9.83;8.73;;;11.60;99.90;;;-141.84;76.95;19950.00;5053989;28;20205;-56
2023/05/13 03:56:55;;;;;;;11.20;9.17;;;11.60;99.90;;;-141.84;76.70;19929.69;5053914;28;20209;-56
2023/05/13 03:59:23;;;;;;;9.50;8.60;;;11.70;99.90;;;-141.84;77.41;19950.00;5053998;28;20653;-56
2023/05/13 04:01:51;;;;;;;9.63;8.83;;;11.70;99.90;;;-141.84;77.35;19964.25;5040742;28;20693;-54
2023/05/13 04:04:19;;;;;;;9.30;8.40;;;11.70;99.90;;;-141.84;77.22;19960.16;5048520;28;20205;-54
2023/05/13 04:06:47;;;;;;;9.47;8.43;;;11.70;99.90;;;-141.84;76.96;19954.06;5074179;28;20204;-55
2023/05/13 04:09:15;;;;;;;8.70;7.90;;;11.80;99.90;;;-141.84;76.15;19956.09;5073712;28;20209;-55
2023/05/13 04:11:45;;;;;;;9.17;8.33;;;11.80;99.90;;;-141.84;76.51;19964.25;5054921;28;20212;-54
2023/05/13 04:14:13;;;;;;;9.73;8.80;;;11.90;99.90;;;-141.84;76.16;19976.44;5054163;28;20201;-55
2023/05/13 04:16:41;;;;;;;9.57;8.67;;;11.90;99.90;;;-141.84;76.26;19980.50;5053808;28;20205;-55
2023/05/13 04:19:10;;;;;;;10.30;9.30;;;12.00;99.90;;;-141.84;75.81;20039.44;5042363;28;20297;-54
2023/05/13 04:21:38;;;;;;;9.57;8.60;;;12.10;99.90;;;-141.84;75.40;20013.00;5034022;28;20210;-54
2023/05/13 04:24:07;;;;;;;10.43;9.40;;;12.30;99.90;;;-141.84;74.45;20041.47;5033554;28;20549;-56
2023/05/13 04:26:35;;;;;;;10.17;9.27;;;12.30;99.90;;;-141.84;73.87;20049.59;5033840;28;20248;-55
2023/05/13 04:29:04;;;;;;;10.43;9.43;;;12.40;99.90;;;-141.84;73.89;20039.44;5033765;28;20198;-55
2023/05/13 04:31:32;;;;;;;10.20;9.20;;;12.50;99.90;;;-141.84;73.65;20053.66;5033227;28;20225;-54
2023/05/13 04:34:01;;;;;;;9.73;8.57;;;12.50;99.90;;;-141.84;74.00;20065.84;5042860;28;20236;-55
2023/05/13 04:36:30;;;;;;;9.93;8.93;;;12.50;99.90;;;-141.84;73.85;20069.94;5074090;28;20249;-54
2023/05/13 04:38:58;;;;;;;10.30;9.30;;;12.50;99.90;;;-141.84;73.93;20076.03;5073028;28;20201;-55
2023/05/13 04:41:26;;;;;;;8.97;8.27;;;12.60;99.90;;;-141.84;74.03;20059.75;5064529;28;20205;-57
2023/05/13 04:43:54;;;;;;;10.90;9.80;;;12.60;99.90;;;-141.84;73.45;20033.34;5033688;28;20206;-55
2023/05/13 04:46:24;;;;;;;10.10;9.20;;;12.70;99.90;;;-141.84;73.18;20063.81;5033578;28;20285;-55
2023/05/13 04:48:53;;;;;;;10.37;9.20;;;12.80;99.90;;;-141.84;72.35;20126.84;5038081;28;20565;-58
2023/05/13 04:51:21;;;;;;;9.82;8.82;;;12.90;99.90;;;-141.84;71.81;20216.25;5053175;28;20267;-53
2023/05/13 04:53:50;;;;;;;11.18;10.18;;;13.10;99.90;;;-141.84;68.73;20334.16;5052645;28;20202;-56
2023/05/13 04:56:18;;;;;;;9.60;8.63;;;13.80;99.90;;;-141.84;63.22;20604.50;5053450;28;20205;-57
2023/05/13 04:58:47;;;;;;;8.90;8.13;;;14.90;99.90;;;-141.84;57.06;20897.25;5053288;28;20212;-56
2023/05/13 05:01:15;;;;;;;8.32;7.55;;;16.10;99.90;;;-141.84;53.08;21202.19;5052297;28;20213;-57
2023/05/13 05:03:45;;;;;;;7.80;7.10;;;17.40;99.90;;;-141.84;49.12;21474.63;5055332;28;20198;-56
2023/05/13 05:06:13;;;;;;;8.40;7.70;;;18.50;99.90;;;-141.84;47.82;21537.66;5072875;28;20694;-56
2023/05/13 05:08:41;;;;;;;8.25;7.55;;;19.10;99.90;;;-141.84;47.26;21505.13;5072371;28;20549;-56
2023/05/13 05:11:10;;;;;;;8.77;7.85;;;19.00;99.90;;;-141.84;48.68;21405.50;5058388;28;20217;-59
2023/05/13 05:13:38;;;;;;;9.05;7.57;;;18.70;99.90;;;-141.84;48.86;21391.28;5052836;28;20267;-55
2023/05/13 05:16:07;;;;;;;8.63;7.93;;;18.60;99.90;;;-141.84;48.67;21360.78;5052291;28;20219;-55
2023/05/13 05:18:35;;;;;;;9.57;8.60;;;18.40;99.90;;;-141.84;49.78;21275.38;5045470;28;20248;-54
2023/05/13 05:21:05;;;;;;;9.25;8.32;;;18.10;99.90;;;-141.84;51.37;21126.97;5038262;28;20205;-55
2023/05/13 05:23:33;;;;;;;10.23;9.32;;;17.90;99.90;;;-141.84;52.28;20972.47;5048715;28;20198;-55
2023/05/13 05:26:02;;;;;;;9.93;9.13;;;17.40;99.90;;;-141.84;53.79;20921.63;5052265;28;20209;-55
2023/05/13 05:28:39;;;;;;;9.65;8.68;;;17.30;99.90;;;-141.84;55.77;20828.13;5032848;28;20197;-58
2023/05/13 05:31:08;;;;;;;9.77;8.98;;;16.90;99.90;;;-141.84;56.06;20834.22;5031620;28;20686;-57
2023/05/13 05:33:37;;;;;;;8.00;7.25;;;16.60;99.90;;;-141.84;56.51;20793.56;5034814;28;20206;-55
2023/05/13 05:36:08;;;;;;;9.18;8.38;;;16.70;99.90;;;-141.84;57.27;20767.13;5072293;28;20228;-54
2023/05/13 05:38:36;;;;;;;8.73;7.93;;;16.60;99.90;;;-141.84;57.87;20795.59;5046922;28;20713;-57
2023/05/13 05:41:04;;;;;;;9.40;8.50;;;16.60;99.90;;;-141.84;57.06;20754.94;5043156;28;20193;-54
2023/05/13 05:43:33;;;;;;;10.25;9.25;;;16.40;99.90;;;-141.84;57.50;20695.97;5052310;28;20234;-57
2023/05/13 05:46:01;;;;;;;8.93;8.13;;;16.30;99.90;;;-141.84;57.95;20720.38;5052095;28;20202;-55
2023/05/13 05:48:29;;;;;;;9.35;8.40;;;16.30;99.90;;;-141.84;57.69;20708.19;5052045;28;20233;-56
2023/05/13 05:51:00;;;;;;;9.15;8.25;;;16.30;99.90;;;-141.84;58.07;20730.53;5051873;28;20581;-56
2023/05/13 05:53:30;;;;;;;8.65;7.82;;;16.30;99.90;;;-141.84;57.90;20689.88;5052013;28;20228;-57
2023/05/13 05:55:58;;;;;;;9.30;8.50;;;16.30;99.90;;;-141.84;58.07;20704.13;5052221;28;20284;-54
2023/05/13 05:58:27;;;;;;;9.00;8.10;;;16.30;99.90;;;-141.84;57.31;20744.78;5051841;28;20208;-55
2023/05/13 06:00:55;;;;;;;8.93;8.02;;;16.50;99.90;;;-141.84;56.41;20754.94;5046597;28;20202;-56
2023/05/13 06:03:24;;;;;;;8.75;7.85;;;16.60;99.90;;;-141.84;56.67;20777.28;5052775;28;20201;-54
2023/05/13 06:05:52;;;;;;;9.10;8.30;;;16.70;99.90;;;-141.84;56.63;20785.44;5071431;28;20227;-57
2023/05/13 06:08:21;;;;;;;8.30;7.55;;;16.70;99.90;;;-141.84;56.77;20771.19;5071372;28;20215;-58
2023/05/13 06:10:51;;;;;;;9.10;8.13;;;16.70;99.90;;;-141.84;56.41;20763.06;5054868;28;20217;-54
2023/05/13 06:13:19;;;;;;;8.93;8.07;;;16.80;99.90;;;-141.84;56.53;20817.94;5051654;28;20201;-55
2023/05/13 06:15:47;;;;;;;9.55;8.65;;;17.00;99.90;;;-141.84;56.10;20807.78;5051860;28;20208;-61
2023/05/13 06:18:15;;;;;;;9.30;8.30;;;17.00;99.90;;;-141.84;56.84;20799.66;5047391;28;20228;-56
2023/05/13 06:20:43;;;;;;;8.77;7.97;;;16.90;99.90;;;-141.84;56.85;20767.13;5031244;28;20210;-60
2023/05/13 06:23:13;;;;;;;9.32;8.30;;;16.90;99.90;;;-141.84;56.18;20820.00;5031703;28;20202;-53
2023/05/13 06:25:41;;;;;;;8.82;8.02;;;16.90;99.90;;;-141.84;56.05;20797.63;5031876;28;20217;-55
2023/05/13 06:28:11;;;;;;;8.57;7.70;;;17.00;99.90;;;-141.84;56.30;20785.44;5031828;28;20213;-56
2023/05/13 06:30:40;;;;;;;8.80;7.78;;;16.90;99.90;;;-141.84;56.04;20771.19;5033951;28;20232;-55
2023/05/13 06:33:09;;;;;;;7.85;7.15;;;16.90;99.90;;;-141.84;55.89;20803.72;5051365;28;20197;-56
2023/05/13 06:35:38;;;;;;;8.52;7.18;;;16.90;99.90;;;-141.84;55.95;20801.69;5054136;28;20213;-57
2023/05/13 06:38:06;;;;;;;6.97;6.35;;;17.00;99.90;;;-141.84;56.42;20876.91;5051551;28;20615;-55
2023/05/13 06:40:34;;;;;;;7.10;6.40;;;17.20;99.90;;;-141.84;55.23;20844.38;5049766;28;20700;-55
2023/05/13 06:43:02;;;;;;;6.90;6.30;;;17.20;99.90;;;-141.84;54.64;20909.44;5031628;28;20209;-56
2023/05/13 06:45:32;;;;;;;7.05;6.35;;;17.30;99.90;;;-141.84;54.56;20919.59;5043170;28;20222;-55
2023/05/13 06:48:00;;;;;;;5.65;5.20;;;17.50;99.90;;;-141.84;53.27;20909.44;5055463;28;20237;-58
2023/05/13 06:50:28;;;;;;;5.63;5.10;;;17.50;99.90;;;-141.84;52.63;20929.75;5036370;28;20189;-58
2023/05/13 06:52:59;;;;;;;6.75;6.25;;;17.60;99.90;;;-141.84;53.42;20923.66;5052036;28;20671;-57
2023/05/13 06:55:27;;;;;;;5.63;5.10;;;17.50;99.90;;;-141.84;53.54;20913.50;5055519;28;20185;-56
2023/05/13 06:57:55;;;;;;;6.90;6.30;;;17.50;99.90;;;-141.84;53.53;20903.34;5055287;28;20202;-54
2023/05/13 07:00:24;;;;;;;5.60;5.10;;;17.60;99.90;;;-141.84;52.35;20972.47;5054376;28;20205;-56
2023/05/13 07:02:53;;;;;;;5.43;5.00;;;17.60;99.90;;;-141.84;52.98;20968.38;5035501;28;20202;-55
2023/05/13 07:05:22;;;;;;;5.72;5.22;;;17.70;99.90;;;-141.84;52.64;20927.72;5051076;28;20229;-58
2023/05/13 07:07:52;;;;;;;4.90;4.50;;;17.60;99.90;;;-141.84;52.92;20974.50;5046393;28;20193;-56
2023/05/13 07:10:20;;;;;;;4.28;3.80;;;17.70;99.90;;;-141.84;50.09;20988.72;5053090;28;20597;-59
2023/05/13 07:12:49;;;;;;;5.10;4.00;;;17.70;99.90;;;-141.84;50.74;20980.59;5032953;28;20529;-55
2023/05/13 07:15:17;;;;;;;4.18;3.78;;;17.60;99.90;;;-141.84;49.64;20946.03;5035189;28;20289;-55
2023/05/13 07:17:46;;;;;;;4.65;4.25;;;17.60;99.90;;;-141.84;49.74;20952.13;5035230;28;20296;-56
2023/05/13 07:20:18;;;;;;;4.20;3.80;;;17.60;99.90;;;-141.84;50.52;20944.00;5034709;28;20752;-54
2023/05/13 07:22:46;;;;;;;4.57;3.70;;;17.50;99.90;;;-141.84;50.71;20952.13;5035269;28;20236;-53
2023/05/13 07:25:15;;;;;;;4.47;4.07;;;17.40;99.90;;;-141.84;51.48;20903.34;5035437;28;20202;-56
2023/05/13 07:27:43;;;;;;;4.50;4.10;;;17.40;99.90;;;-141.84;50.35;20941.97;5034784;28;20202;-54
2023/05/13 07:30:12;;;;;;;4.68;4.28;;;17.40;99.90;;;-141.84;51.04;20978.56;5034977;28;20670;-55
2023/05/13 07:32:41;;;;;;;4.20;3.90;;;17.40;99.90;;;-141.84;50.94;20946.03;5053861;28;20217;-52
2023/05/13 07:35:10;;;;;;;4.03;3.63;;;17.40;99.90;;;-141.84;51.04;20923.66;5067779;28;20227;-59
2023/05/13 07:37:40;;;;;;;4.65;4.15;;;17.40;99.90;;;-141.84;50.42;20905.38;5074632;28;20201;-53
2023/05/13 07:40:09;;;;;;;4.72;4.32;;;17.50;99.90;;;-141.84;50.66;20939.94;5074480;28;20680;-57
2023/05/13 07:42:38;;;;;;;4.43;3.20;;;17.50;99.90;;;-141.84;49.52;20944.00;5055943;28;20201;-51
2023/05/13 07:45:08;;;;;;;4.50;3.60;;;17.40;99.90;;;-141.84;50.06;20903.34;5054573;28;20220;-54
2023/05/13 07:47:37;;;;;;;3.63;3.33;;;17.40;99.90;;;-141.84;50.69;20907.41;5054085;28;20217;-53
2023/05/13 07:50:06;;;;;;;3.83;3.47;;;17.30;99.90;;;-141.84;50.86;20907.41;5038821;28;20201;-55
2023/05/13 07:52:35;;;;;;;4.38;4.07;;;17.30;99.90;;;-141.84;50.82;20944.00;5047727;28;20218;-55
2023/05/13 07:55:05;;;;;;;5.28;3.88;;;17.40;99.90;;;-141.84;50.30;20956.19;5053388;28;20212;-54
2023/05/13 07:57:34;;;;;;;3.90;3.55;;;17.50;99.90;;;-141.84;50.79;20962.28;5054373;28;20228;-54
2023/05/13 08:00:02;;;;;;;4.00;3.63;;;17.50;99.90;;;-141.84;50.96;20974.50;5053978;28;20206;-54
2023/05/13 08:02:33;;;;;;;4.40;3.55;;;17.50;99.90;;;-141.84;50.36;20976.53;5054368;28;20315;-56
2023/05/13 08:05:02;;;;;;;4.30;3.90;;;17.50;99.90;;;-141.84;49.97;20933.81;5066607;28;20687;-56
2023/05/13 08:07:30;;;;;;;4.28;3.60;;;17.60;99.90;;;-141.84;49.54;21011.09;5073582;28;20201;-56
2023/05/13 08:09:58;;;;;;;5.63;3.92;;;17.60;99.90;;;-141.84;49.43;20988.72;5069008;28;20201;-55
2023/05/13 08:12:28;;;;;;;9.68;4.10;;;17.70;99.90;;;-141.84;49.08;20998.88;5054035;28;20240;-54
2023/05/13 08:14:56;;;;;;;3.75;3.45;;;17.70;99.90;;;-141.84;49.48;20982.63;5053838;28;20577;-56
2023/05/13 08:17:24;;;;;;;4.78;3.92;;;17.60;99.90;;;-141.84;50.11;20960.25;5053635;28;20700;-56
2023/05/13 08:19:53;;;;;;;4.38;4.00;;;17.60;99.90;;;-141.84;50.52;20990.75;5053938;28;20228;-56
2023/05/13 08:22:21;;;;;;;6.80;4.18;;;17.60;99.90;;;-141.84;50.74;20972.47;5053866;28;20201;-53
2023/05/13 08:24:49;;;;;;;5.32;3.75;;;17.70;99.90;;;-141.84;49.80;21011.09;5053868;28;20224;-55
2023/05/13 08:27:17;;;;;;;4.90;3.88;;;17.70;99.90;;;-141.84;50.12;21013.13;5053613;28;20213;-57
2023/05/13 08:29:47;;;;;;;5.55;4.50;;;17.70;99.90;;;-141.84;50.39;21007.00;5053939;28;20202;-56
2023/05/13 08:32:15;;;;;;;4.25;3.70;;;17.80;99.90;;;-141.84;50.88;21013.13;5053411;28;20217;-56
2023/05/13 08:34:43;;;;;;;4.72;4.32;;;17.90;99.90;;;-141.84;50.25;21021.25;5064161;28;20299;-58
2023/05/13 08:37:12;;;;;;;4.80;4.40;;;17.90;99.90;;;-141.84;50.05;21061.91;5073232;28;20220;-55
2023/05/13 08:39:40;;;;;;;4.15;3.75;;;18.00;99.90;;;-141.84;49.93;21057.84;5073755;28;20216;-57
2023/05/13 08:42:11;;;;;;;4.38;3.90;;;18.10;99.90;;;-141.84;50.07;21059.88;5055887;28;20202;-57
2023/05/13 08:44:43;;;;;;;4.65;4.25;;;18.10;99.90;;;-141.84;49.96;21090.38;5053591;28;20194;-52
2023/05/13 08:47:31;;;;;;;4.88;4.47;;;18.20;99.90;;;-141.84;48.16;21129.00;5052940;28;20638;-58
2023/05/13 08:50:02;;;;;;;4.60;4.20;;;18.30;99.90;;;-141.84;48.65;21126.97;5052888;28;20649;-56
2023/05/13 08:52:32;;;;;;;4.18;3.78;;;18.30;99.90;;;-141.84;48.17;21145.25;5052680;28;20716;-56
2023/05/13 08:55:01;;;;;;;5.50;4.55;;;18.30;99.90;;;-141.84;47.52;21082.25;5053327;28;20556;-54
2023/05/13 08:57:30;;;;;;;5.30;4.25;;;18.30;99.90;;;-141.84;47.64;21102.56;5052978;28;20546;-54
2023/05/13 08:59:59;;;;;;;4.70;4.30;;;18.30;99.90;;;-141.84;47.73;21110.69;5053282;28;20202;-53
2023/05/13 09:02:29;;;;;;;4.53;4.13;;;18.20;99.90;;;-141.84;47.08;21100.53;5053050;28;20251;-54
2023/05/13 09:05:05;;;;;;;5.53;4.13;;;18.30;99.90;;;-141.84;47.06;21106.63;5052542;28;20204;-56
2023/05/13 09:07:34;;;;;;;4.60;4.15;;;18.30;99.90;;;-141.84;46.88;21175.75;5030679;28;20206;-55
2023/05/13 09:10:03;;;;;;;7.00;4.07;;;18.40;99.90;;;-141.84;46.69;21185.91;5036329;28;20205;-54
2023/05/13 09:12:46;;;;;;;4.30;3.90;;;18.40;99.90;;;-141.84;46.96;21185.91;5042758;28;20315;-59
2023/05/13 09:15:17;;;;;;;5.13;4.10;;;18.50;99.90;;;-141.84;46.74;21220.47;5043928;28;20205;-55
2023/05/13 09:17:51;;;;;;;4.60;4.20;;;18.60;99.90;;;-141.84;47.55;21196.09;5036458;28;20206;-56
2023/05/13 09:20:24;;;;;;;7.50;4.32;;;18.70;99.90;;;-141.84;47.03;21232.69;5051254;28;20616;-56
2023/05/13 09:22:55;;;;;;;4.30;3.90;;;18.90;99.90;;;-141.84;47.51;21250.97;5034421;28;20336;-58
2023/05/13 09:25:24;;;;;;;4.90;4.22;;;18.90;99.90;;;-141.84;47.89;21244.88;5052856;28;20209;-54
2023/05/13 09:27:57;;;;;;;5.07;4.50;;;19.00;99.90;;;-141.84;46.88;21263.19;5052497;28;20214;-57
2023/05/13 09:30:26;;;;;;;5.32;4.82;;;19.10;99.90;;;-141.84;47.32;21250.97;5052724;28;20220;-60
2023/05/13 09:33:13;;;;;;;5.05;4.57;;;19.00;99.90;;;-141.84;46.57;21261.16;5052185;28;20221;-53
2023/05/13 09:35:43;;;;;;;9.95;6.38;;;19.00;99.90;;;-141.84;47.00;21261.16;5070713;28;20193;-57
2023/05/13 09:38:17;;;;;;;5.03;4.50;;;19.00;99.90;;;-141.84;47.39;21234.72;5040591;28;20252;-56
2023/05/13 09:40:52;;;;;;;6.30;5.45;;;18.90;99.90;;;-141.84;45.85;21267.25;5032550;28;20287;-55
2023/05/13 09:43:22;;;;;;;5.45;4.30;;;19.00;99.90;;;-141.84;46.28;21232.69;5032232;28;20224;-57
2023/05/13 09:45:54;;;;;;;6.82;4.75;;;19.00;99.90;;;-141.84;45.83;21283.50;5032353;28;20190;-59
2023/05/13 09:48:26;;;;;;;5.45;4.45;;;19.10;99.90;;;-141.84;45.08;21291.66;5032217;28;20720;-57
2023/05/13 09:50:56;;;;;;;4.60;4.20;;;19.10;99.90;;;-141.84;45.39;21316.03;5050922;28;20224;-57
2023/05/13 09:53:25;;;;;;;4.78;4.38;;;19.20;99.90;;;-141.84;45.87;21297.75;5051680;28;20673;-55
2023/05/13 09:55:56;;;;;;;7.43;5.70;;;19.20;99.90;;;-141.84;44.89;21334.34;5051984;28;20232;-56
2023/05/13 09:58:27;;;;;;;15.38;7.93;;;19.40;99.90;;;-141.84;45.57;21354.66;5051774;28;20185;-58
2023/05/13 10:00:57;;;;;;;6.95;5.13;;;19.50;99.90;;;-141.84;44.50;21403.47;5052449;28;20225;-57
2023/05/13 10:03:28;;;;;;;5.20;4.63;;;19.50;99.90;;;-141.84;44.89;21362.81;5051016;28;20201;-57
2023/05/13 10:05:58;;;;;;;6.85;5.00;;;19.40;99.90;;;-141.84;45.68;21314.00;5031945;28;20233;-56
2023/05/13 10:08:31;;;;;;;6.20;4.50;;;19.30;99.90;;;-141.84;46.02;21356.69;5031710;28;20242;-56
2023/05/13 10:10:59;;;;;;;6.30;4.82;;;19.40;99.90;;;-141.84;43.86;21497.00;5044569;28;20280;-57
2023/05/13 10:13:31;;;;;;;5.38;4.63;;;19.70;99.90;;;-141.84;44.22;21452.25;5047319;28;20220;-55
2023/05/13 10:16:00;;;;;;;5.50;4.97;;;19.80;99.90;;;-141.84;44.36;21458.38;5037987;28;20197;-56